Time;durP1;ratioP1;P1;durP2;ratioP2;P2;SDS_P1;SDS_P2;PMS_P1;PMS_P2;Temp;Humidity;BMP_temperature;BMP_pressure;BME280_temperature;BME280_humidity;BME280_pressure;Samples;Min_cycle;Max_cycle;Signal;HPM_P1;HPM_P2
2022/03/16 00:01:38;;;;;;;2.70;1.88;;;10.30;1.00;;;;;;4997949;28;20109;-73
2022/03/16 00:04:04;;;;;;;9.13;2.28;;;10.30;1.00;;;;;;4997636;28;20038;-73
2022/03/16 00:06:30;;;;;;;5.63;2.15;;;10.30;1.00;;;;;;4997877;28;20050;-73
2022/03/16 00:08:55;;;;;;;0.35;0.30;;;10.30;1.00;;;;;;4998423;28;20093;-73
2022/03/16 00:11:21;;;;;;;1.40;1.30;;;10.30;1.00;;;;;;4997666;28;20556;-73
2022/03/16 00:13:47;;;;;;;1.42;1.33;;;10.30;1.00;;;;;;4997434;28;20050;-73
2022/03/16 00:16:13;;;;;;;0.40;0.40;;;10.30;1.00;;;;;;4997453;28;20420;-73
2022/03/16 00:18:39;;;;;;;0.60;0.60;;;10.30;1.00;;;;;;4997649;28;20121;-73
2022/03/16 00:21:04;;;;;;;0.93;0.93;;;10.30;1.00;;;;;;4997833;28;20038;-73
2022/03/16 00:23:30;;;;;;;1.13;1.13;;;10.30;1.00;;;;;;4997609;28;20046;-73
2022/03/16 00:25:56;;;;;;;0.40;0.40;;;10.30;1.00;;;;;;4997274;28;20042;-73
2022/03/16 00:28:22;;;;;;;0.47;0.47;;;10.30;1.00;;;;;;4997540;28;20041;-73
2022/03/16 00:30:48;;;;;;;2.67;1.67;;;10.30;1.00;;;;;;4997461;28;20038;-72
2022/03/16 00:33:14;;;;;;;2.30;1.10;;;10.30;1.00;;;;;;4997352;28;20068;-73
2022/03/16 00:35:40;;;;;;;0.88;0.88;;;10.30;1.00;;;;;;4997182;28;20054;-73
2022/03/16 00:38:05;;;;;;;0.60;0.60;;;10.30;1.00;;;;;;4997334;28;20081;-73
2022/03/16 00:40:34;;;;;;;2.60;1.55;;;10.30;1.00;;;;;;4997469;28;20481;-73
2022/03/16 00:43:00;;;;;;;0.45;0.45;;;10.30;1.00;;;;;;4996963;28;20156;-72
2022/03/16 00:45:26;;;;;;;1.08;1.05;;;10.30;1.00;;;;;;4997348;28;20038;-73
2022/03/16 00:47:52;;;;;;;0.70;0.70;;;10.30;1.00;;;;;;4997189;28;20512;-73
2022/03/16 00:50:18;;;;;;;0.38;0.38;;;10.30;99.90;;;;;;4997118;28;20066;-73
2022/03/16 00:52:44;;;;;;;0.50;0.50;;;10.30;1.00;;;;;;4997308;28;20036;-73
2022/03/16 00:55:10;;;;;;;0.65;0.65;;;10.30;1.00;;;;;;4996923;28;20125;-73
2022/03/16 00:57:36;;;;;;;2.80;0.75;;;10.20;1.00;;;;;;4997504;28;20038;-73
2022/03/16 01:00:04;;;;;;;0.55;0.55;;;10.30;1.00;;;;;;4996914;28;20103;-73
2022/03/16 01:02:30;;;;;;;0.82;0.82;;;10.30;1.00;;;;;;4997017;28;20058;-73
2022/03/16 01:04:56;;;;;;;0.38;0.38;;;10.20;1.00;;;;;;4996744;28;20065;-73
2022/03/16 01:07:22;;;;;;;0.57;0.57;;;10.20;99.90;;;;;;4996491;28;20108;-73
2022/03/16 01:09:47;;;;;;;1.52;1.38;;;10.30;99.90;;;;;;4996436;28;20117;-73
2022/03/16 01:12:13;;;;;;;4.22;1.17;;;10.30;99.90;;;;;;4996922;28;20038;-73
2022/03/16 01:14:39;;;;;;;0.55;0.55;;;10.20;99.90;;;;;;4996251;28;20045;-73
2022/03/16 01:17:05;;;;;;;4.55;1.02;;;10.30;99.90;;;;;;4996150;28;20042;-73
2022/03/16 01:19:34;;;;;;;1.40;1.02;;;10.30;1.00;;;;;;4996500;28;20041;-73
2022/03/16 01:22:01;;;;;;;2.63;1.52;;;10.30;99.90;;;;;;4996800;28;20074;-73
2022/03/16 01:24:27;;;;;;;1.75;0.82;;;10.30;99.90;;;;;;4996345;28;20050;-73
2022/03/16 01:26:53;;;;;;;0.73;0.73;;;10.20;99.90;;;;;;4996068;28;20034;-73
2022/03/16 01:29:19;;;;;;;0.65;0.65;;;10.20;1.00;;;;;;4996087;28;20386;-73
2022/03/16 01:31:44;;;;;;;0.68;0.68;;;10.30;99.90;;;;;;4996120;28;20049;-73
2022/03/16 01:34:10;;;;;;;1.27;0.57;;;10.30;99.90;;;;;;4996033;28;20049;-73
2022/03/16 01:36:37;;;;;;;1.13;1.08;;;10.30;99.90;;;;;;4995844;28;20417;-73
2022/03/16 01:39:04;;;;;;;1.00;1.00;;;10.20;99.90;;;;;;4996361;28;20461;-73
2022/03/16 01:41:30;;;;;;;0.30;0.30;;;10.20;99.90;;;;;;4995944;28;20060;-73
2022/03/16 01:43:56;;;;;;;0.60;0.60;;;10.20;99.90;;;;;;4996180;28;20384;-73
2022/03/16 01:46:23;;;;;;;0.70;0.68;;;10.20;99.90;;;;;;4995541;28;20046;-73
2022/03/16 01:48:50;;;;;;;0.55;0.55;;;10.20;99.90;;;;;;4996149;28;20501;-73
2022/03/16 01:51:16;;;;;;;0.43;0.43;;;10.30;99.90;;;;;;4996164;28;20046;-73
2022/03/16 01:53:42;;;;;;;0.57;0.57;;;10.20;99.90;;;;;;4995860;28;20084;-73
2022/03/16 01:56:08;;;;;;;0.80;0.80;;;10.20;99.90;;;;;;4995897;28;20129;-73
2022/03/16 01:58:35;;;;;;;0.98;0.88;;;10.20;99.90;;;;;;4995575;28;20031;-73
2022/03/16 02:01:00;;;;;;;0.82;0.82;;;10.20;99.90;;;;;;4995288;28;20061;-73
2022/03/16 02:03:26;;;;;;;0.60;0.60;;;10.20;99.90;;;;;;4995549;28;20054;-73
2022/03/16 02:05:52;;;;;;;0.10;0.10;;;10.20;99.90;;;;;;4995451;28;20593;-73
2022/03/16 02:08:18;;;;;;;0.50;0.50;;;10.20;99.90;;;;;;4995159;28;20555;-73
2022/03/16 02:10:44;;;;;;;0.77;0.77;;;10.20;99.90;;;;;;4995248;28;20041;-73
2022/03/16 02:13:11;;;;;;;1.17;0.65;;;10.20;99.90;;;;;;4995556;28;20125;-73
2022/03/16 02:15:37;;;;;;;1.27;1.25;;;10.20;99.90;;;;;;4995212;28;20038;-73
2022/03/16 02:18:04;;;;;;;0.90;0.90;;;10.30;99.90;;;;;;4995291;28;20061;-73
2022/03/16 02:20:29;;;;;;;1.38;1.27;;;10.30;99.90;;;;;;4995268;28;20129;-73
2022/03/16 02:23:01;;;;;;;0.70;0.70;;;10.30;99.90;;;;;;4995235;28;20523;-73
2022/03/16 02:25:29;;;;;;;4.32;1.10;;;10.20;99.90;;;;;;4994969;28;20072;-73
2022/03/16 02:27:56;;;;;;;2.55;0.30;;;10.30;99.90;;;;;;4994848;28;20037;-73
2022/03/16 02:30:24;;;;;;;1.30;1.20;;;10.30;99.90;;;;;;4994970;28;20509;-73
2022/03/16 02:32:50;;;;;;;0.45;0.45;;;10.30;99.90;;;;;;4994793;28;20038;-73
2022/03/16 02:35:16;;;;;;;0.65;0.65;;;10.30;99.90;;;;;;4995092;28;20050;-73
2022/03/16 02:37:42;;;;;;;0.73;0.70;;;10.30;99.90;;;;;;4995110;28;20038;-73
2022/03/16 02:40:10;;;;;;;0.40;0.40;;;10.30;99.90;;;;;;4995065;28;20445;-73
2022/03/16 02:42:37;;;;;;;1.17;1.08;;;10.30;99.90;;;;;;4995636;28;20049;-73
2022/03/16 02:45:04;;;;;;;1.55;0.60;;;10.30;99.90;;;;;;4995022;28;20046;-73
2022/03/16 02:47:30;;;;;;;0.60;0.60;;;10.30;99.90;;;;;;4994866;28;20047;-73
2022/03/16 02:49:56;;;;;;;0.25;0.25;;;10.30;99.90;;;;;;4995413;28;20053;-73
2022/03/16 02:52:22;;;;;;;0.47;0.47;;;10.30;99.90;;;;;;4995371;28;20038;-73
2022/03/16 02:54:49;;;;;;;0.98;0.98;;;10.30;99.90;;;;;;4994961;28;20121;-73
2022/03/16 02:57:16;;;;;;;0.52;0.52;;;10.30;99.90;;;;;;4994672;28;20497;-73
2022/03/16 02:59:43;;;;;;;0.75;0.52;;;10.30;99.90;;;;;;4996480;28;20042;-73
2022/03/16 03:02:09;;;;;;;0.85;0.85;;;10.30;99.90;;;;;;4998562;28;20054;-73
2022/03/16 03:04:35;;;;;;;1.30;1.20;;;10.30;99.90;;;;;;4998766;28;20049;-73
2022/03/16 03:07:01;;;;;;;0.30;0.30;;;10.30;99.90;;;;;;4998437;28;20042;-73
2022/03/16 03:09:27;;;;;;;1.67;1.55;;;10.30;99.90;;;;;;4998648;28;20038;-73
2022/03/16 03:11:53;;;;;;;0.50;0.50;;;10.30;99.90;;;;;;4998766;28;20034;-73
2022/03/16 03:14:19;;;;;;;0.52;0.52;;;10.30;99.90;;;;;;4998631;28;20046;-73
2022/03/16 03:16:46;;;;;;;1.95;0.55;;;10.30;99.90;;;;;;4998406;28;20050;-73
2022/03/16 03:19:13;;;;;;;0.93;0.93;;;10.30;99.90;;;;;;4998250;28;20046;-73
2022/03/16 03:21:39;;;;;;;0.57;0.57;;;10.30;99.90;;;;;;4997955;28;20038;-73
2022/03/16 03:24:05;;;;;;;0.50;0.50;;;10.30;99.90;;;;;;4998420;28;20070;-73
2022/03/16 03:26:32;;;;;;;1.00;0.77;;;10.30;99.90;;;;;;4998103;28;20053;-73
2022/03/16 03:28:58;;;;;;;1.95;1.00;;;10.30;99.90;;;;;;4998044;28;20049;-73
2022/03/16 03:31:24;;;;;;;0.40;0.40;;;10.30;99.90;;;;;;4997980;28;20046;-73
2022/03/16 03:33:50;;;;;;;5.57;1.50;;;10.30;99.90;;;;;;4998412;28;20367;-73
2022/03/16 03:36:15;;;;;;;0.45;0.45;;;10.30;99.90;;;;;;4998226;28;20073;-73
2022/03/16 03:38:41;;;;;;;0.85;0.85;;;10.30;99.90;;;;;;4997869;28;20034;-73
2022/03/16 03:41:07;;;;;;;0.25;0.25;;;10.30;99.90;;;;;;4998247;28;20042;-72
2022/03/16 03:43:33;;;;;;;0.40;0.40;;;10.30;99.90;;;;;;4997806;28;20046;-73
2022/03/16 03:45:59;;;;;;;0.63;0.63;;;10.30;99.90;;;;;;4997859;28;20133;-73
2022/03/16 03:48:25;;;;;;;1.15;0.57;;;10.30;99.90;;;;;;4997994;28;20493;-73
2022/03/16 03:50:50;;;;;;;0.65;0.65;;;10.30;99.90;;;;;;4998042;28;20074;-73
2022/03/16 03:53:16;;;;;;;0.80;0.80;;;10.30;99.90;;;;;;4997542;28;20038;-73
2022/03/16 03:55:42;;;;;;;0.45;0.45;;;10.30;99.90;;;;;;4997554;28;20568;-73
2022/03/16 03:58:08;;;;;;;1.35;0.95;;;10.30;99.90;;;;;;4980552;28;20034;-73
2022/03/16 04:00:34;;;;;;;0.80;0.80;;;10.40;99.90;;;;;;4997360;28;20038;-74
2022/03/16 04:02:59;;;;;;;0.57;0.57;;;10.30;99.90;;;;;;4980887;28;20085;-73
2022/03/16 04:05:25;;;;;;;1.00;0.82;;;10.30;99.90;;;;;;4997867;28;20042;-73
2022/03/16 04:07:51;;;;;;;0.28;0.28;;;10.30;99.90;;;;;;4998205;28;20061;-73
2022/03/16 04:10:17;;;;;;;0.38;0.38;;;10.30;99.90;;;;;;4997338;28;20473;-73
2022/03/16 04:12:44;;;;;;;0.30;0.30;;;10.40;99.90;;;;;;4997896;28;20070;-73
2022/03/16 04:15:10;;;;;;;0.85;0.85;;;10.40;99.90;;;;;;4997821;28;20050;-73
2022/03/16 04:17:36;;;;;;;0.63;0.63;;;10.40;99.90;;;;;;4997437;28;20030;-73
2022/03/16 04:20:03;;;;;;;1.13;1.00;;;10.30;99.90;;;;;;4998001;28;20499;-73
2022/03/16 04:22:28;;;;;;;1.65;0.60;;;10.40;99.90;;;;;;4998012;28;20042;-73
2022/03/16 04:24:55;;;;;;;0.45;0.45;;;10.40;99.90;;;;;;4998070;28;20425;-73
2022/03/16 04:27:22;;;;;;;0.35;0.35;;;10.40;99.90;;;;;;4998105;28;20085;-72
2022/03/16 04:29:48;;;;;;;0.80;0.80;;;10.30;99.90;;;;;;4997642;28;20042;-73
2022/03/16 04:32:14;;;;;;;0.30;0.30;;;10.40;99.90;;;;;;4997040;28;20038;-73
2022/03/16 04:34:39;;;;;;;1.48;0.77;;;10.40;99.90;;;;;;4997124;28;20158;-73
2022/03/16 04:37:05;;;;;;;0.98;0.85;;;10.40;99.90;;;;;;4997394;28;20117;-73
2022/03/16 04:39:32;;;;;;;0.43;0.43;;;10.40;99.90;;;;;;4997702;28;20099;-73
2022/03/16 04:41:58;;;;;;;0.70;0.70;;;10.40;99.90;;;;;;4997917;28;20042;-73
2022/03/16 04:44:24;;;;;;;1.25;1.15;;;10.40;99.90;;;;;;4997253;28;20046;-73
2022/03/16 04:46:50;;;;;;;2.15;1.15;;;10.40;99.90;;;;;;4996824;28;20038;-73
2022/03/16 04:49:16;;;;;;;0.38;0.38;;;10.40;99.90;;;;;;4997154;28;20044;-73
2022/03/16 04:51:42;;;;;;;2.13;0.98;;;10.40;99.90;;;;;;4997140;28;20030;-73
2022/03/16 04:54:08;;;;;;;0.32;0.32;;;10.40;99.90;;;;;;4996991;28;20053;-73
2022/03/16 04:56:35;;;;;;;0.55;0.55;;;10.40;99.90;;;;;;4996748;28;20042;-73
2022/03/16 04:59:02;;;;;;;0.40;0.40;;;10.40;99.90;;;;;;4998888;28;20273;-73
2022/03/16 05:01:28;;;;;;;0.22;0.22;;;10.40;99.90;;;;;;5014649;28;20057;-73
2022/03/16 05:03:54;;;;;;;0.43;0.43;;;10.40;99.90;;;;;;5016167;28;20077;-73
2022/03/16 05:06:20;;;;;;;1.42;1.10;;;10.40;99.90;;;;;;5016193;28;20046;-73
2022/03/16 05:08:47;;;;;;;0.50;0.50;;;10.40;99.90;;;;;;5016091;28;20484;-73
2022/03/16 05:11:14;;;;;;;1.38;0.85;;;10.40;99.90;;;;;;5016203;28;20088;-73
2022/03/16 05:13:41;;;;;;;0.30;0.30;;;10.50;99.90;;;;;;5011361;28;20042;-73
2022/03/16 05:16:07;;;;;;;1.10;0.68;;;10.40;99.90;;;;;;5007712;28;20045;-73
2022/03/16 05:18:38;;;;;;;1.02;0.90;;;10.40;99.90;;;;;;5016174;28;20076;-73
2022/03/16 05:21:06;;;;;;;0.40;0.40;;;10.40;99.90;;;;;;5002796;28;20034;-73
2022/03/16 05:23:32;;;;;;;0.55;0.55;;;10.50;99.90;;;;;;5007520;28;20045;-73
2022/03/16 05:25:58;;;;;;;0.40;0.40;;;10.50;99.90;;;;;;5016176;28;20038;-73
2022/03/16 05:28:24;;;;;;;0.32;0.32;;;10.40;99.90;;;;;;5015298;28;20042;-73
2022/03/16 05:30:49;;;;;;;1.45;1.27;;;10.50;99.90;;;;;;5016103;28;20036;-73
2022/03/16 05:33:15;;;;;;;4.13;2.03;;;10.40;99.90;;;;;;5000975;28;20445;-75
2022/03/16 05:35:41;;;;;;;0.82;0.68;;;10.50;99.90;;;;;;5011607;28;20057;-74
2022/03/16 05:38:08;;;;;;;0.68;0.52;;;10.40;99.90;;;;;;5015239;28;20108;-71
2022/03/16 05:40:35;;;;;;;0.52;0.52;;;10.40;99.90;;;;;;5016122;28;20042;-74
2022/03/16 05:43:01;;;;;;;0.20;0.20;;;10.40;99.90;;;;;;5014599;28;20496;-74
2022/03/16 05:45:27;;;;;;;1.80;1.35;;;10.40;99.90;;;;;;5013754;28;20137;-74
2022/03/16 05:47:52;;;;;;;1.10;1.02;;;10.40;99.90;;;;;;5015547;28;20045;-73
2022/03/16 05:50:18;;;;;;;0.45;0.45;;;10.40;99.90;;;;;;4998138;28;20129;-74
2022/03/16 05:52:46;;;;;;;1.00;0.45;;;10.40;99.90;;;;;;5013786;28;20045;-74
2022/03/16 05:55:13;;;;;;;0.57;0.57;;;10.40;99.90;;;;;;5008619;28;20046;-74
2022/03/16 05:57:44;;;;;;;0.82;0.82;;;10.40;99.90;;;;;;5005477;28;20109;-74
2022/03/16 06:00:14;;;;;;;1.00;0.57;;;10.30;99.90;;;;;;5010091;28;20037;-74
2022/03/16 06:02:41;;;;;;;1.90;1.08;;;10.30;99.90;;;;;;5001085;28;20096;-74
2022/03/16 06:05:08;;;;;;;0.52;0.52;;;10.30;99.90;;;;;;5012558;28;20096;-74
2022/03/16 06:07:34;;;;;;;0.90;0.88;;;10.20;99.90;;;;;;5010350;28;20401;-74
2022/03/16 06:10:00;;;;;;;0.52;0.52;;;10.20;99.90;;;;;;4995391;28;20034;-74
2022/03/16 06:12:26;;;;;;;0.50;0.50;;;10.20;99.90;;;;;;4997680;28;20046;-74
2022/03/16 06:14:53;;;;;;;0.55;0.55;;;10.30;99.90;;;;;;5004037;28;20038;-75
2022/03/16 06:17:19;;;;;;;0.70;0.70;;;10.20;99.90;;;;;;4995192;28;20096;-75
2022/03/16 06:19:45;;;;;;;0.85;0.28;;;10.20;99.90;;;;;;5012105;28;20048;-75
2022/03/16 06:22:11;;;;;;;2.30;1.77;;;10.30;99.90;;;;;;4997506;28;20125;-75
2022/03/16 06:24:37;;;;;;;0.30;0.30;;;10.30;99.90;;;;;;5005247;28;20497;-75
2022/03/16 06:27:03;;;;;;;0.30;0.30;;;10.30;99.90;;;;;;4995216;28;20046;-74
2022/03/16 06:29:29;;;;;;;0.30;0.30;;;10.30;99.90;;;;;;4977803;28;20034;-74
2022/03/16 06:31:55;;;;;;;0.45;0.45;;;10.30;99.90;;;;;;5007308;28;20033;-73
2022/03/16 06:34:20;;;;;;;0.75;0.68;;;10.30;99.90;;;;;;5001478;28;20072;-74
2022/03/16 06:36:46;;;;;;;0.20;0.20;;;10.20;99.90;;;;;;5010784;28;20076;-73
2022/03/16 06:39:13;;;;;;;0.85;0.85;;;10.20;99.90;;;;;;5014729;28;20042;-75
2022/03/16 06:41:39;;;;;;;0.75;0.75;;;10.20;99.90;;;;;;5014118;28;20034;-75
2022/03/16 06:44:05;;;;;;;5.22;1.48;;;10.20;99.90;;;;;;5014655;28;20048;-75
2022/03/16 06:46:31;;;;;;;0.30;0.30;;;10.30;99.90;;;;;;5014543;28;20132;-75
2022/03/16 06:48:56;;;;;;;0.70;0.70;;;10.30;99.90;;;;;;5015148;28;20042;-75
2022/03/16 06:51:22;;;;;;;0.80;0.80;;;10.30;99.90;;;;;;5014670;28;20033;-75
2022/03/16 06:53:48;;;;;;;1.65;1.55;;;10.30;99.90;;;;;;5014735;28;20049;-74
2022/03/16 06:56:14;;;;;;;1.40;1.30;;;10.30;99.90;;;;;;5014720;28;20044;-75
2022/03/16 06:58:40;;;;;;;0.45;0.45;;;10.40;99.90;;;;;;5014326;28;20084;-75
2022/03/16 07:01:06;;;;;;;0.93;0.93;;;10.30;99.90;;;;;;5014570;28;20069;-75
2022/03/16 07:03:32;;;;;;;0.90;0.82;;;10.40;99.90;;;;;;5013486;28;20042;-75
2022/03/16 07:05:57;;;;;;;3.10;0.75;;;10.40;99.90;;;;;;5014211;28;20042;-75
2022/03/16 07:08:23;;;;;;;0.82;0.82;;;10.40;99.90;;;;;;5013474;28;20042;-75
2022/03/16 07:10:49;;;;;;;0.95;0.95;;;10.40;99.90;;;;;;5014737;28;20120;-75
2022/03/16 07:13:15;;;;;;;0.82;0.82;;;10.40;99.90;;;;;;5014328;28;20046;-75
2022/03/16 07:15:43;;;;;;;0.73;0.73;;;10.40;99.90;;;;;;5014750;28;20046;-75
2022/03/16 07:18:10;;;;;;;0.65;0.65;;;10.40;99.90;;;;;;5014345;28;20544;-74
2022/03/16 07:20:36;;;;;;;9.75;1.55;;;10.50;99.90;;;;;;5014500;28;20042;-75
2022/03/16 07:23:02;;;;;;;6.35;1.70;;;10.50;99.90;;;;;;5014611;28;20175;-74
2022/03/16 07:25:29;;;;;;;0.22;0.22;;;10.50;99.90;;;;;;5014479;28;20365;-75
2022/03/16 07:27:54;;;;;;;0.52;0.52;;;10.50;99.90;;;;;;5014778;28;20069;-75
2022/03/16 07:30:21;;;;;;;0.73;0.73;;;10.50;99.90;;;;;;5014331;28;20084;-75
2022/03/16 07:32:47;;;;;;;4.22;1.58;;;10.50;99.90;;;;;;4996596;28;20067;-75
2022/03/16 07:35:13;;;;;;;2.28;0.60;;;10.60;99.90;;;;;;5014212;28;20046;-75
2022/03/16 07:37:44;;;;;;;0.52;0.52;;;10.60;99.90;;;;;;5014790;28;20484;-75
2022/03/16 07:40:10;;;;;;;1.00;1.00;;;10.60;99.90;;;;;;5014371;28;20046;-75
2022/03/16 07:42:37;;;;;;;0.40;0.40;;;10.60;99.90;;;;;;5014495;28;20072;-75
2022/03/16 07:45:06;;;;;;;0.60;0.60;;;10.60;99.90;;;;;;5014914;28;20045;-75
2022/03/16 07:47:32;;;;;;;0.30;0.30;;;10.60;99.90;;;;;;5017807;28;20076;-75
2022/03/16 07:49:57;;;;;;;1.45;1.35;;;10.60;99.90;;;;;;5017906;28;20124;-75
2022/03/16 07:52:24;;;;;;;0.63;0.63;;;10.70;99.90;;;;;;5017532;28;20034;-75
2022/03/16 07:54:50;;;;;;;0.80;0.80;;;10.70;99.90;;;;;;5018199;28;20041;-75
2022/03/16 07:57:16;;;;;;;0.52;0.52;;;10.60;99.90;;;;;;5017547;28;20431;-75
2022/03/16 07:59:43;;;;;;;0.63;0.63;;;10.70;99.90;;;;;;5017653;28;20049;-75
2022/03/16 08:02:09;;;;;;;0.85;0.85;;;10.70;99.90;;;;;;5017368;28;20050;-75
2022/03/16 08:04:34;;;;;;;0.40;0.40;;;10.70;99.90;;;;;;5017302;28;20088;-75
2022/03/16 08:07:00;;;;;;;0.85;0.85;;;10.70;99.90;;;;;;5017002;28;20042;-75
2022/03/16 08:09:26;;;;;;;2.53;1.15;;;10.70;99.90;;;;;;5017495;28;20042;-75
2022/03/16 08:11:52;;;;;;;0.30;0.30;;;10.70;99.90;;;;;;5017357;28;20050;-75
2022/03/16 08:14:18;;;;;;;1.98;1.60;;;10.70;99.90;;;;;;5017113;28;20052;-75
2022/03/16 08:16:44;;;;;;;0.70;0.65;;;10.70;99.90;;;;;;5016849;28;20045;-75
2022/03/16 08:19:09;;;;;;;0.25;0.25;;;10.70;99.90;;;;;;5016777;28;20040;-75
2022/03/16 08:21:35;;;;;;;0.65;0.65;;;10.70;99.90;;;;;;5017098;28;20045;-75
2022/03/16 08:24:01;;;;;;;0.85;0.85;;;10.70;99.90;;;;;;5017262;28;20046;-75
2022/03/16 08:26:27;;;;;;;0.70;0.70;;;10.70;99.90;;;;;;5016672;28;20125;-75
2022/03/16 08:28:53;;;;;;;1.55;1.05;;;10.80;99.90;;;;;;5016555;28;20041;-75
2022/03/16 08:31:18;;;;;;;0.73;0.73;;;10.80;99.90;;;;;;5016778;28;20504;-75
2022/03/16 08:33:45;;;;;;;0.80;0.80;;;10.80;99.90;;;;;;5016967;28;20067;-75
2022/03/16 08:36:11;;;;;;;0.88;0.88;;;10.80;99.90;;;;;;5016862;28;20050;-75
2022/03/16 08:38:38;;;;;;;0.22;0.22;;;10.80;99.90;;;;;;5016708;28;20041;-75
2022/03/16 08:41:05;;;;;;;1.10;0.80;;;10.80;99.90;;;;;;5016876;28;20159;-75
2022/03/16 08:43:31;;;;;;;0.63;0.63;;;10.80;99.90;;;;;;5017324;28;20084;-75
2022/03/16 08:45:58;;;;;;;0.28;0.28;;;10.90;99.90;;;;;;5016385;28;20500;-75
2022/03/16 08:48:25;;;;;;;0.43;0.43;;;11.00;99.90;;;;;;5017255;28;20030;-75
2022/03/16 08:50:51;;;;;;;0.40;0.40;;;11.00;99.90;;;;;;5016563;28;20132;-75
2022/03/16 08:53:17;;;;;;;1.00;0.40;;;11.00;99.90;;;;;;5016362;28;20045;-75
2022/03/16 08:55:43;;;;;;;0.65;0.65;;;11.00;99.90;;;;;;5016001;28;20136;-75
2022/03/16 08:58:09;;;;;;;1.50;1.10;;;11.10;99.90;;;;;;5016022;28;20045;-75
2022/03/16 09:00:35;;;;;;;0.38;0.38;;;11.10;99.90;;;;;;5015930;28;20504;-75
2022/03/16 09:03:02;;;;;;;0.30;0.30;;;11.20;99.90;;;;;;5016773;28;20050;-75
2022/03/16 09:05:28;;;;;;;0.68;0.68;;;11.20;99.90;;;;;;5016007;28;20504;-75
2022/03/16 09:07:54;;;;;;;0.30;0.30;;;11.10;99.90;;;;;;5015793;28;20033;-75
2022/03/16 09:10:20;;;;;;;0.50;0.50;;;11.20;99.90;;;;;;5016077;28;20214;-75
2022/03/16 09:12:46;;;;;;;1.98;0.65;;;11.20;99.90;;;;;;5016150;28;20488;-75
2022/03/16 09:15:12;;;;;;;0.40;0.40;;;11.30;99.90;;;;;;5015861;28;20091;-75
2022/03/16 09:17:38;;;;;;;0.55;0.55;;;11.40;99.90;;;;;;5015690;28;20034;-75
2022/03/16 09:20:05;;;;;;;3.13;0.75;;;11.30;99.90;;;;;;5015650;28;20507;-75
2022/03/16 09:22:32;;;;;;;0.30;0.30;;;11.30;99.90;;;;;;5015608;28;20048;-75
2022/03/16 09:24:59;;;;;;;2.13;0.80;;;11.30;99.90;;;;;;5015424;28;20054;-75
2022/03/16 09:27:26;;;;;;;0.40;0.25;;;11.30;99.90;;;;;;5015550;28;20100;-75
2022/03/16 09:29:55;;;;;;;0.57;0.57;;;11.30;99.90;;;;;;5015456;28;20041;-75
2022/03/16 09:32:22;;;;;;;2.88;1.90;;;11.20;99.90;;;;;;5015566;28;20050;-75
2022/03/16 09:34:48;;;;;;;0.70;0.70;;;11.30;99.90;;;;;;5015610;28;20072;-75
2022/03/16 09:37:14;;;;;;;0.65;0.65;;;11.30;99.90;;;;;;5015620;28;20116;-74
2022/03/16 09:39:41;;;;;;;0.98;0.98;;;11.40;99.90;;;;;;5014683;28;20492;-75
2022/03/16 09:42:08;;;;;;;1.25;1.08;;;11.30;99.90;;;;;;5016043;28;20060;-75
2022/03/16 09:44:34;;;;;;;0.70;0.70;;;11.30;99.90;;;;;;5015928;28;20037;-75
2022/03/16 09:47:01;;;;;;;0.45;0.45;;;11.30;99.90;;;;;;5015392;28;20124;-75
2022/03/16 09:49:27;;;;;;;0.60;0.60;;;11.30;99.90;;;;;;5015186;28;20076;-75
2022/03/16 09:51:54;;;;;;;0.63;0.63;;;11.40;99.90;;;;;;5015707;28;20066;-75
2022/03/16 09:54:24;;;;;;;0.68;0.68;;;11.50;99.90;;;;;;5015299;28;20081;-75
2022/03/16 09:56:50;;;;;;;0.43;0.43;;;11.40;99.90;;;;;;5015259;28;20497;-75
2022/03/16 09:59:16;;;;;;;1.23;0.90;;;11.40;99.90;;;;;;5014977;28;20042;-75
2022/03/16 10:01:43;;;;;;;0.65;0.65;;;11.40;99.30;;;;;;5014754;28;20049;-75
2022/03/16 10:04:09;;;;;;;0.95;0.73;;;11.50;99.90;;;;;;5015173;28;20050;-75
2022/03/16 10:06:40;;;;;;;2.28;0.50;;;11.60;97.40;;;;;;5006029;28;20127;-75
2022/03/16 10:15:13;;;;;;;0.30;0.30;;;11.60;79.00;;;;;;5006622;28;20049;-75
2022/03/16 10:17:46;;;;;;;2.13;1.75;;;11.70;83.10;;;;;;5013197;28;20132;-74
2022/03/16 10:20:21;;;;;;;0.60;0.60;;;11.70;81.20;;;;;;5015125;28;20052;-75
2022/03/16 10:23:07;;;;;;;0.38;0.38;;;11.60;83.40;;;;;;4997965;28;20448;-75
2022/03/16 10:25:39;;;;;;;1.38;1.35;;;11.70;89.30;;;;;;5014578;28;20148;-75
2022/03/16 10:28:10;;;;;;;0.35;0.35;;;11.80;83.90;;;;;;5015069;28;20104;-75
2022/03/16 10:30:37;;;;;;;0.50;0.50;;;11.80;74.60;;;;;;5014919;28;20124;-75
2022/03/16 10:33:04;;;;;;;2.05;1.30;;;11.70;88.20;;;;;;5014964;28;20046;-75
2022/03/16 10:35:30;;;;;;;1.58;1.23;;;11.80;89.10;;;;;;5014378;28;20484;-75
2022/03/16 10:38:10;;;;;;;2.40;1.65;;;11.80;84.40;;;;;;5014757;28;20045;-75
2022/03/16 10:40:36;;;;;;;0.38;0.38;;;11.90;76.00;;;;;;5015062;28;20045;-75
2022/03/16 10:48:58;;;;;;;0.88;0.88;;;11.90;86.80;;;;;;5014198;28;20040;-75
2022/03/16 10:51:24;;;;;;;8.68;1.63;;;11.90;63.00;;;;;;5014807;28;20048;-75
2022/03/16 10:53:52;;;;;;;0.40;0.40;;;11.90;64.20;;;;;;5014296;28;20054;-75
2022/03/16 10:56:19;;;;;;;1.08;0.98;;;11.90;63.30;;;;;;5014274;28;20052;-75
2022/03/16 10:58:48;;;;;;;0.43;0.43;;;11.80;65.00;;;;;;5007502;28;20042;-78
2022/03/16 11:01:15;;;;;;;1.92;1.05;;;11.80;76.30;;;;;;5007564;28;20046;-72
2022/03/16 11:03:44;;;;;;;1.08;1.08;;;11.90;61.00;;;;;;5002005;28;20509;-72
2022/03/16 11:06:11;;;;;;;2.83;1.17;;;11.90;50.30;;;;;;4996143;28;20506;-73
2022/03/16 11:08:38;;;;;;;0.50;0.50;;;11.90;56.70;;;;;;5000168;28;20034;-73
2022/03/16 11:13:51;;;;;;;0.60;0.60;;;11.90;69.80;;;;;;4970159;28;20084;-74
2022/03/16 11:16:20;;;;;;;7.40;2.00;;;11.90;53.80;;;;;;4999278;28;20081;-74
2022/03/16 11:18:50;;;;;;;1.35;1.25;;;11.90;56.90;;;;;;4994214;28;20497;-75
2022/03/16 11:21:23;;;;;;;0.75;0.75;;;11.90;66.00;;;;;;4997510;28;20050;-74
2022/03/16 11:26:44;;;;;;;0.63;0.60;;;11.80;54.40;;;;;;4999256;28;20559;-75
2022/03/16 11:29:28;;;;;;;0.32;0.32;;;11.80;66.10;;;;;;4999195;28;20038;-74
2022/03/16 11:32:18;;;;;;;0.57;0.57;;;11.80;71.80;;;;;;5002059;28;20041;-74
2022/03/16 11:35:00;;;;;;;0.75;0.63;;;11.80;75.10;;;;;;4998565;28;20074;-74
2022/03/16 11:37:43;;;;;;;0.98;0.47;;;11.80;71.60;;;;;;4980471;28;20034;-74
2022/03/16 11:40:20;;;;;;;0.30;0.30;;;11.70;77.60;;;;;;5000837;28;20037;-74
2022/03/16 11:43:04;;;;;;;0.43;0.43;;;11.70;65.80;;;;;;5003318;28;20042;-74
2022/03/16 11:45:37;;;;;;;6.35;1.23;;;11.60;90.60;;;;;;5016083;28;20160;-75
2022/03/16 11:48:33;;;;;;;0.80;0.80;;;11.60;91.90;;;;;;5006614;28;20030;-74
2022/03/16 11:51:13;;;;;;;0.50;0.50;;;11.50;87.60;;;;;;5011996;28;20069;-75
2022/03/16 11:53:50;;;;;;;2.55;1.40;;;11.50;97.50;;;;;;5018347;28;20048;-75
2022/03/16 11:56:24;;;;;;;0.50;0.50;;;11.50;98.10;;;;;;5017563;28;20099;-74
2022/03/16 11:58:52;;;;;;;1.27;0.45;;;11.50;97.70;;;;;;5017815;28;20104;-75
2022/03/16 12:01:38;;;;;;;1.17;1.17;;;11.50;99.90;;;;;;5014864;28;20049;-75
2022/03/16 12:04:11;;;;;;;0.75;0.73;;;11.50;95.00;;;;;;5007091;28;20038;-74
2022/03/16 12:07:01;;;;;;;0.73;0.73;;;11.50;98.00;;;;;;4997794;28;20039;-75
2022/03/16 12:09:45;;;;;;;1.35;0.35;;;11.50;98.40;;;;;;5014863;28;20037;-75
2022/03/16 12:15:29;;;;;;;1.33;1.33;;;11.70;97.90;;;;;;5016822;28;20084;-75
2022/03/16 12:18:00;;;;;;;0.77;0.77;;;11.70;95.10;;;;;;5004862;28;20125;-75
2022/03/16 12:20:30;;;;;;;0.93;0.85;;;11.70;99.90;;;;;;4997702;28;20049;-75
2022/03/16 12:22:57;;;;;;;2.65;1.15;;;11.70;98.70;;;;;;5009099;28;20042;-74
2022/03/16 12:25:26;;;;;;;1.30;1.00;;;11.60;99.90;;;;;;5016026;28;20041;-74
2022/03/16 12:31:02;;;;;;;1.15;0.60;;;11.80;97.20;;;;;;5002784;28;20387;-74
2022/03/16 12:33:40;;;;;;;1.17;0.57;;;11.70;92.80;;;;;;5015680;28;20046;-74
2022/03/16 12:36:11;;;;;;;1.25;1.15;;;11.80;91.20;;;;;;5000947;28;20042;-74
2022/03/16 12:38:40;;;;;;;1.10;1.00;;;11.80;94.30;;;;;;5001625;28;20040;-75
2022/03/16 12:43:56;;;;;;;0.80;0.80;;;11.80;92.30;;;;;;5009072;28;20049;-74
2022/03/16 12:46:52;;;;;;;1.65;0.63;;;12.00;73.00;;;;;;5002540;28;20038;-74
2022/03/16 12:49:22;;;;;;;0.77;0.77;;;12.20;77.50;;;;;;4996288;28;20038;-74
2022/03/16 12:51:53;;;;;;;0.20;0.20;;;12.30;54.20;;;;;;5007198;28;20041;-74
2022/03/16 12:54:22;;;;;;;;;;;12.20;41.80;;;;;;5015748;28;20081;-74
2022/03/16 12:56:52;;;;;;;2.20;1.08;;;12.10;43.90;;;;;;5006016;28;19914;-74
2022/03/16 12:59:22;;;;;;;;;;;12.10;57.70;;;;;;4995616;28;20050;-74
2022/03/16 13:01:48;;;;;;;1.15;0.82;;;12.30;38.80;;;;;;4993783;28;20292;-74
2022/03/16 13:04:16;;;;;;;0.43;0.43;;;12.30;30.80;;;;;;5002751;28;20116;-74
2022/03/16 13:06:42;;;;;;;0.57;0.57;;;12.40;31.40;;;;;;4996199;28;20404;-74
2022/03/16 13:09:10;;;;;;;0.73;0.73;;;12.30;35.20;;;;;;5015275;28;20037;-74
2022/03/16 13:11:39;;;;;;;0.57;0.45;;;12.30;39.10;;;;;;5014775;28;20062;-74
2022/03/16 13:14:13;;;;;;;0.82;0.50;;;12.20;41.00;;;;;;5009473;28;20046;-74
2022/03/16 13:16:44;;;;;;;1.15;1.05;;;12.30;40.00;;;;;;5000101;28;20053;-74